sensor_id;sensor_type;location;lat;lon;timestamp;pressure;altitude;pressure_sealevel;temperature;humidity
3960;BME280;1994;48.640;8.894;2023-09-07T00:00:23;96498.16;;;17.18;75.79
3960;BME280;1994;48.640;8.894;2023-09-07T00:02:49;96503.91;;;17.15;76.33
3960;BME280;1994;48.640;8.894;2023-09-07T00:05:14;96508.88;;;17.11;76.59
3960;BME280;1994;48.640;8.894;2023-09-07T00:07:41;96507.59;;;17.04;77.44
3960;BME280;1994;48.640;8.894;2023-09-07T00:10:07;96504.97;;;16.99;77.72
3960;BME280;1994;48.640;8.894;2023-09-07T00:12:33;96511.25;;;16.93;78.62
3960;BME280;1994;48.640;8.894;2023-09-07T00:14:59;96499.22;;;16.92;78.59
3960;BME280;1994;48.640;8.894;2023-09-07T00:17:25;96501.84;;;16.97;78.18
3960;BME280;1994;48.640;8.894;2023-09-07T00:19:51;96506.56;;;16.90;78.73
3960;BME280;1994;48.640;8.894;2023-09-07T00:22:18;96505.78;;;16.89;78.19
3960;BME280;1994;48.640;8.894;2023-09-07T00:24:45;96505.50;;;17.01;78.21
3960;BME280;1994;48.640;8.894;2023-09-07T00:30:15;96499.72;;;16.99;77.64
3960;BME280;1994;48.640;8.894;2023-09-07T00:32:41;96490.81;;;17.10;76.24
3960;BME280;1994;48.640;8.894;2023-09-07T00:35:07;96495.81;;;17.06;76.28
3960;BME280;1994;48.640;8.894;2023-09-07T00:37:33;96498.16;;;17.13;74.95
3960;BME280;1994;48.640;8.894;2023-09-07T00:39:59;96501.03;;;17.16;74.80
3960;BME280;1994;48.640;8.894;2023-09-07T00:42:25;96499.97;;;17.17;74.21
3960;BME280;1994;48.640;8.894;2023-09-07T00:44:50;96506.03;;;17.03;75.23
3960;BME280;1994;48.640;8.894;2023-09-07T00:47:16;96499.72;;;17.04;75.47
3960;BME280;1994;48.640;8.894;2023-09-07T00:49:43;96502.38;;;16.89;75.72
3960;BME280;1994;48.640;8.894;2023-09-07T00:52:10;96500.53;;;16.74;76.05
3960;BME280;1994;48.640;8.894;2023-09-07T00:54:36;96492.44;;;16.76;75.93
3960;BME280;1994;48.640;8.894;2023-09-07T00:57:05;96490.88;;;16.70;76.23
3960;BME280;1994;48.640;8.894;2023-09-07T00:59:33;96505.25;;;16.77;76.16
3960;BME280;1994;48.640;8.894;2023-09-07T01:01:59;96493.50;;;16.70;76.56
3960;BME280;1994;48.640;8.894;2023-09-07T01:04:25;96493.75;;;16.73;76.28
3960;BME280;1994;48.640;8.894;2023-09-07T01:07:02;96488.75;;;16.72;76.19
3960;BME280;1994;48.640;8.894;2023-09-07T01:09:30;96490.88;;;16.80;75.65
3960;BME280;1994;48.640;8.894;2023-09-07T01:11:57;96486.69;;;16.64;75.93
3960;BME280;1994;48.640;8.894;2023-09-07T01:14:23;96489.81;;;16.66;76.01
3960;BME280;1994;48.640;8.894;2023-09-07T01:16:49;96483.56;;;16.62;75.95
3960;BME280;1994;48.640;8.894;2023-09-07T01:19:16;96482.47;;;16.38;76.55
3960;BME280;1994;48.640;8.894;2023-09-07T01:21:42;96490.28;;;16.33;76.91
3960;BME280;1994;48.640;8.894;2023-09-07T01:24:10;96486.09;;;16.17;77.88
3960;BME280;1994;48.640;8.894;2023-09-07T01:26:37;96483.47;;;16.12;78.43
3960;BME280;1994;48.640;8.894;2023-09-07T01:29:06;96483.72;;;15.95;79.16
3960;BME280;1994;48.640;8.894;2023-09-07T01:31:38;96480.81;;;15.87;79.96
3960;BME280;1994;48.640;8.894;2023-09-07T01:34:05;96485.50;;;15.90;79.65
3960;BME280;1994;48.640;8.894;2023-09-07T01:36:32;96481.34;;;15.94;79.52
3960;BME280;1994;48.640;8.894;2023-09-07T01:38:58;96486.59;;;16.04;79.34
3960;BME280;1994;48.640;8.894;2023-09-07T01:41:24;96483.47;;;16.02;79.57
3960;BME280;1994;48.640;8.894;2023-09-07T01:43:50;96488.16;;;16.05;79.36
3960;BME280;1994;48.640;8.894;2023-09-07T01:46:16;96488.13;;;15.95;79.86
3960;BME280;1994;48.640;8.894;2023-09-07T01:48:41;96489.72;;;15.96;80.50
3960;BME280;1994;48.640;8.894;2023-09-07T01:51:10;96488.13;;;15.95;80.11
3960;BME280;1994;48.640;8.894;2023-09-07T01:53:36;96483.94;;;15.89;80.28
3960;BME280;1994;48.640;8.894;2023-09-07T01:56:02;96491.00;;;15.88;80.69
3960;BME280;1994;48.640;8.894;2023-09-07T01:58:27;96493.84;;;15.82;81.45
3960;BME280;1994;48.640;8.894;2023-09-07T02:00:57;96488.09;;;15.85;80.89
3960;BME280;1994;48.640;8.894;2023-09-07T02:03:24;96483.94;;;15.89;80.90
3960;BME280;1994;48.640;8.894;2023-09-07T02:05:50;96488.63;;;15.82;80.52
3960;BME280;1994;48.640;8.894;2023-09-07T02:08:16;96483.41;;;15.82;80.54
3960;BME280;1994;48.640;8.894;2023-09-07T02:10:42;96477.13;;;15.78;80.61
3960;BME280;1994;48.640;8.894;2023-09-07T02:13:08;96480.25;;;15.70;80.74
3960;BME280;1994;48.640;8.894;2023-09-07T02:15:37;96472.66;;;15.68;81.27
3960;BME280;1994;48.640;8.894;2023-09-07T02:18:04;96472.94;;;15.72;81.18
3960;BME280;1994;48.640;8.894;2023-09-07T02:20:32;96474.00;;;15.76;81.26
3960;BME280;1994;48.640;8.894;2023-09-07T02:22:58;96473.47;;;15.79;80.76
3960;BME280;1994;48.640;8.894;2023-09-07T02:25:24;96474.78;;;15.86;80.53
3960;BME280;1994;48.640;8.894;2023-09-07T02:27:50;96476.66;;;15.91;80.34
3960;BME280;1994;48.640;8.894;2023-09-07T02:30:16;96473.75;;;15.92;80.15
3960;BME280;1994;48.640;8.894;2023-09-07T02:32:43;96479.78;;;15.93;80.36
3960;BME280;1994;48.640;8.894;2023-09-07T02:35:09;96473.75;;;15.87;80.11
3960;BME280;1994;48.640;8.894;2023-09-07T02:37:38;96474.00;;;15.81;80.92
3960;BME280;1994;48.640;8.894;2023-09-07T02:40:04;96482.59;;;15.81;80.67
3960;BME280;1994;48.640;8.894;2023-09-07T02:42:33;96477.66;;;15.75;81.06
3960;BME280;1994;48.640;8.894;2023-09-07T02:44:59;96483.41;;;15.82;80.88
3960;BME280;1994;48.640;8.894;2023-09-07T02:47:25;96479.22;;;15.76;81.13
3960;BME280;1994;48.640;8.894;2023-09-07T02:49:50;96470.28;;;15.67;81.77
3960;BME280;1994;48.640;8.894;2023-09-07T02:52:16;96471.84;;;15.68;81.61
3960;BME280;1994;48.640;8.894;2023-09-07T02:54:42;96476.31;;;15.67;81.11
3960;BME280;1994;48.640;8.894;2023-09-07T02:57:08;96471.38;;;15.71;80.87
3960;BME280;1994;48.640;8.894;2023-09-07T02:59:34;96476.53;;;15.61;80.98
3960;BME280;1994;48.640;8.894;2023-09-07T03:01:59;96470.78;;;15.54;80.89
3960;BME280;1994;48.640;8.894;2023-09-07T03:04:25;96463.47;;;15.56;81.71
3960;BME280;1994;48.640;8.894;2023-09-07T03:06:51;96460.88;;;15.61;81.28
3960;BME280;1994;48.640;8.894;2023-09-07T03:09:17;96462.38;;;15.42;82.10
3960;BME280;1994;48.640;8.894;2023-09-07T03:11:42;96463.91;;;15.33;82.03
3960;BME280;1994;48.640;8.894;2023-09-07T03:14:08;96465.94;;;15.26;82.33
3960;BME280;1994;48.640;8.894;2023-09-07T03:16:34;96469.84;;;15.23;82.59
3960;BME280;1994;48.640;8.894;2023-09-07T03:19:00;96456.00;;;15.23;83.19
3960;BME280;1994;48.640;8.894;2023-09-07T03:21:26;96458.09;;;15.26;82.54
3960;BME280;1994;48.640;8.894;2023-09-07T03:23:56;96456.59;;;15.35;82.45
3960;BME280;1994;48.640;8.894;2023-09-07T03:26:22;96456.69;;;15.55;81.52
3960;BME280;1994;48.640;8.894;2023-09-07T03:28:48;96458.56;;;15.69;81.08
3960;BME280;1994;48.640;8.894;2023-09-07T03:31:13;96459.88;;;15.77;80.21
3960;BME280;1994;48.640;8.894;2023-09-07T03:33:40;96464.81;;;15.68;80.86
3960;BME280;1994;48.640;8.894;2023-09-07T03:36:06;96468.22;;;15.64;80.78
3960;BME280;1994;48.640;8.894;2023-09-07T03:38:32;96468.22;;;15.69;78.99
3960;BME280;1994;48.640;8.894;2023-09-07T03:40:57;96465.31;;;15.60;78.66
3960;BME280;1994;48.640;8.894;2023-09-07T03:43:23;96467.66;;;15.62;78.63
3960;BME280;1994;48.640;8.894;2023-09-07T03:45:49;96462.16;;;15.58;78.58
3960;BME280;1994;48.640;8.894;2023-09-07T03:48:15;96460.84;;;15.51;79.42
3960;BME280;1994;48.640;8.894;2023-09-07T03:50:40;96459.28;;;15.55;78.66
3960;BME280;1994;48.640;8.894;2023-09-07T03:53:06;96457.75;;;15.59;78.71
3960;BME280;1994;48.640;8.894;2023-09-07T03:55:41;96467.66;;;15.62;78.70
3960;BME280;1994;48.640;8.894;2023-09-07T03:58:11;96459.78;;;15.47;79.19
3960;BME280;1994;48.640;8.894;2023-09-07T04:00:41;96463.06;;;15.32;80.17
3960;BME280;1994;48.640;8.894;2023-09-07T04:03:09;96460.75;;;15.31;80.38
3960;BME280;1994;48.640;8.894;2023-09-07T04:05:37;96452.59;;;15.17;81.39
3960;BME280;1994;48.640;8.894;2023-09-07T04:08:04;96458.06;;;15.16;81.42
3960;BME280;1994;48.640;8.894;2023-09-07T04:10:30;96459.06;;;15.10;81.58
3960;BME280;1994;48.640;8.894;2023-09-07T04:12:56;96450.66;;;15.03;82.30
3960;BME280;1994;48.640;8.894;2023-09-07T04:15:22;96452.16;;;14.89;83.23
3960;BME280;1994;48.640;8.894;2023-09-07T04:17:50;96457.38;;;14.89;83.10
3960;BME280;1994;48.640;8.894;2023-09-07T04:20:16;96451.16;;;14.95;82.97
3960;BME280;1994;48.640;8.894;2023-09-07T04:22:42;96451.22;;;15.05;82.39
3960;BME280;1994;48.640;8.894;2023-09-07T04:25:08;96451.97;;;15.05;81.72
3960;BME280;1994;48.640;8.894;2023-09-07T04:27:34;96450.69;;;15.08;81.87
3960;BME280;1994;48.640;8.894;2023-09-07T04:30:00;96453.84;;;15.10;81.97
3960;BME280;1994;48.640;8.894;2023-09-07T04:32:26;96441.84;;;15.09;81.46
3960;BME280;1994;48.640;8.894;2023-09-07T04:34:56;96448.63;;;15.10;81.63
3960;BME280;1994;48.640;8.894;2023-09-07T04:37:25;96453.84;;;15.10;80.76
3960;BME280;1994;48.640;8.894;2023-09-07T04:39:52;96457.50;;;15.09;78.89
3960;BME280;1994;48.640;8.894;2023-09-07T04:42:21;96454.84;;;15.04;78.10
3960;BME280;1994;48.640;8.894;2023-09-07T04:44:48;96453.84;;;15.10;78.52
3960;BME280;1994;48.640;8.894;2023-09-07T04:47:14;96447.34;;;15.12;78.92
3960;BME280;1994;48.640;8.894;2023-09-07T04:49:41;96453.88;;;15.15;79.22
3960;BME280;1994;48.640;8.894;2023-09-07T04:52:07;96452.81;;;15.16;79.34
3960;BME280;1994;48.640;8.894;2023-09-07T04:54:34;96448.38;;;15.16;79.84
3960;BME280;1994;48.640;8.894;2023-09-07T04:57:00;96454.19;;;15.23;79.77
3960;BME280;1994;48.640;8.894;2023-09-07T04:59:26;96446.06;;;15.25;79.51
3960;BME280;1994;48.640;8.894;2023-09-07T05:01:52;96452.91;;;15.31;79.26
3960;BME280;1994;48.640;8.894;2023-09-07T05:04:18;96455.47;;;15.21;79.28
3960;BME280;1994;48.640;8.894;2023-09-07T05:06:45;96452.31;;;15.19;79.21
3960;BME280;1994;48.640;8.894;2023-09-07T05:09:11;96460.16;;;15.24;78.90
3960;BME280;1994;48.640;8.894;2023-09-07T05:11:37;96454.91;;;15.19;79.67
3960;BME280;1994;48.640;8.894;2023-09-07T05:14:02;96456.00;;;15.23;78.67
3960;BME280;1994;48.640;8.894;2023-09-07T05:16:29;96457.56;;;15.24;79.08
3960;BME280;1994;48.640;8.894;2023-09-07T05:18:54;96463.34;;;15.31;77.93
3960;BME280;1994;48.640;8.894;2023-09-07T05:21:20;96465.97;;;15.31;78.52
3960;BME280;1994;48.640;8.894;2023-09-07T05:23:46;96470.19;;;15.37;77.98
3960;BME280;1994;48.640;8.894;2023-09-07T05:26:12;96470.22;;;15.42;77.97
3960;BME280;1994;48.640;8.894;2023-09-07T05:28:40;96467.03;;;15.35;77.72
3960;BME280;1994;48.640;8.894;2023-09-07T05:31:07;96474.38;;;15.43;77.93
3960;BME280;1994;48.640;8.894;2023-09-07T05:33:33;96477.06;;;15.53;77.60
3960;BME280;1994;48.640;8.894;2023-09-07T05:35:59;96481.75;;;15.61;77.55
3960;BME280;1994;48.640;8.894;2023-09-07T05:38:27;96484.41;;;15.66;77.69
3960;BME280;1994;48.640;8.894;2023-09-07T05:40:54;96481.84;;;15.81;78.75
3960;BME280;1994;48.640;8.894;2023-09-07T05:43:20;96486.03;;;15.82;78.57
3960;BME280;1994;48.640;8.894;2023-09-07T05:45:47;96483.94;;;15.89;78.71
3960;BME280;1994;48.640;8.894;2023-09-07T05:48:13;96489.19;;;15.94;78.87
3960;BME280;1994;48.640;8.894;2023-09-07T05:50:42;96483.97;;;15.99;78.36
3960;BME280;1994;48.640;8.894;2023-09-07T05:53:08;96488.16;;;16.05;78.65
3960;BME280;1994;48.640;8.894;2023-09-07T05:55:34;96490.78;;;16.10;78.38
3960;BME280;1994;48.640;8.894;2023-09-07T05:58:04;96490.84;;;16.30;78.45
3960;BME280;1994;48.640;8.894;2023-09-07T06:00:30;96488.25;;;16.40;78.89
3960;BME280;1994;48.640;8.894;2023-09-07T06:02:56;96489.28;;;16.49;79.19
3960;BME280;1994;48.640;8.894;2023-09-07T06:05:22;96486.44;;;16.70;78.07
3960;BME280;1994;48.640;8.894;2023-09-07T06:07:48;96488.25;;;16.70;78.24
3960;BME280;1994;48.640;8.894;2023-09-07T06:10:14;96490.38;;;16.78;77.85
3960;BME280;1994;48.640;8.894;2023-09-07T06:12:41;96491.91;;;16.89;77.97
3960;BME280;1994;48.640;8.894;2023-09-07T06:15:07;96486.69;;;16.94;77.32
3960;BME280;1994;48.640;8.894;2023-09-07T06:17:33;96486.41;;;16.95;77.32
3960;BME280;1994;48.640;8.894;2023-09-07T06:19:59;96490.84;;;17.00;77.58
3960;BME280;1994;48.640;8.894;2023-09-07T06:22:25;96484.56;;;17.06;76.82
3960;BME280;1994;48.640;8.894;2023-09-07T06:24:51;96487.19;;;17.11;77.22
3960;BME280;1994;48.640;8.894;2023-09-07T06:27:17;96486.59;;;17.24;77.30
3960;BME280;1994;48.640;8.894;2023-09-07T06:29:42;96484.50;;;17.26;77.66
3960;BME280;1994;48.640;8.894;2023-09-07T06:32:08;96488.66;;;17.32;76.84
3960;BME280;1994;48.640;8.894;2023-09-07T06:34:34;96485.53;;;17.50;76.97
3960;BME280;1994;48.640;8.894;2023-09-07T06:37:00;96484.41;;;17.66;76.54
3960;BME280;1994;48.640;8.894;2023-09-07T06:39:26;96489.03;;;17.84;75.54
3960;BME280;1994;48.640;8.894;2023-09-07T06:41:52;96488.97;;;17.99;74.54
3960;BME280;1994;48.640;8.894;2023-09-07T06:44:17;96499.94;;;18.06;75.91
3960;BME280;1994;48.640;8.894;2023-09-07T06:46:43;96498.38;;;18.05;74.62
3960;BME280;1994;48.640;8.894;2023-09-07T06:49:09;96500.91;;;18.20;74.59
3960;BME280;1994;48.640;8.894;2023-09-07T06:51:35;96506.03;;;18.40;75.54
3960;BME280;1994;48.640;8.894;2023-09-07T06:54:01;96508.03;;;18.58;74.96
3960;BME280;1994;48.640;8.894;2023-09-07T06:56:27;96499.53;;;18.71;73.69
3960;BME280;1994;48.640;8.894;2023-09-07T06:58:53;96500.66;;;18.93;73.49
3960;BME280;1994;48.640;8.894;2023-09-07T07:01:19;96506.66;;;18.94;73.12
3960;BME280;1994;48.640;8.894;2023-09-07T07:03:45;96501.38;;;18.99;73.34
3960;BME280;1994;48.640;8.894;2023-09-07T07:06:11;96509.16;;;19.09;73.54
3960;BME280;1994;48.640;8.894;2023-09-07T07:08:37;96506.44;;;19.19;74.04
3960;BME280;1994;48.640;8.894;2023-09-07T07:11:02;96510.63;;;19.25;73.96
3960;BME280;1994;48.640;8.894;2023-09-07T07:13:28;96521.97;;;19.44;72.41
3960;BME280;1994;48.640;8.894;2023-09-07T07:15:55;96504.38;;;19.44;72.12
3960;BME280;1994;48.640;8.894;2023-09-07T07:18:20;96512.69;;;19.51;72.29
3960;BME280;1994;48.640;8.894;2023-09-07T07:20:46;96511.13;;;19.74;71.50
3960;BME280;1994;48.640;8.894;2023-09-07T07:23:12;96515.75;;;19.82;71.93
3960;BME280;1994;48.640;8.894;2023-09-07T07:25:38;96514.69;;;19.83;71.54
3960;BME280;1994;48.640;8.894;2023-09-07T07:28:05;96513.13;;;19.82;72.85
3960;BME280;1994;48.640;8.894;2023-09-07T07:30:36;96513.56;;;19.89;72.75
3960;BME280;1994;48.640;8.894;2023-09-07T07:33:05;96517.09;;;20.21;70.70
3960;BME280;1994;48.640;8.894;2023-09-07T07:35:33;96519.19;;;20.43;70.17
3960;BME280;1994;48.640;8.894;2023-09-07T07:38:01;96514.75;;;20.57;69.49
3960;BME280;1994;48.640;8.894;2023-09-07T07:40:27;96511.88;;;20.72;69.11
3960;BME280;1994;48.640;8.894;2023-09-07T07:42:53;96515.44;;;20.81;69.53
3960;BME280;1994;48.640;8.894;2023-09-07T07:45:19;96512.09;;;20.94;69.26
3960;BME280;1994;48.640;8.894;2023-09-07T07:47:46;96504.75;;;20.91;68.02
3960;BME280;1994;48.640;8.894;2023-09-07T07:50:12;96494.88;;;21.15;68.05
3960;BME280;1994;48.640;8.894;2023-09-07T07:52:38;96501.53;;;21.26;66.97
3960;BME280;1994;48.640;8.894;2023-09-07T07:55:04;96503.13;;;21.08;66.74
3960;BME280;1994;48.640;8.894;2023-09-07T07:57:31;96500.34;;;21.32;67.24
3960;BME280;1994;48.640;8.894;2023-09-07T07:59:57;96499.19;;;21.65;67.13
3960;BME280;1994;48.640;8.894;2023-09-07T08:02:23;96509.13;;;21.95;65.75
3960;BME280;1994;48.640;8.894;2023-09-07T08:04:49;96508.28;;;22.35;63.97
3960;BME280;1994;48.640;8.894;2023-09-07T08:07:15;96509.22;;;22.66;62.75
3960;BME280;1994;48.640;8.894;2023-09-07T08:09:41;96505.06;;;24.04;58.85
3960;BME280;1994;48.640;8.894;2023-09-07T08:12:07;96506.84;;;24.85;57.30
3960;BME280;1994;48.640;8.894;2023-09-07T08:14:33;96509.19;;;25.78;53.36
3960;BME280;1994;48.640;8.894;2023-09-07T08:16:59;96507.09;;;26.83;50.66
3960;BME280;1994;48.640;8.894;2023-09-07T08:19:24;96503.56;;;27.68;48.84
3960;BME280;1994;48.640;8.894;2023-09-07T08:21:51;96504.66;;;28.15;47.68
3960;BME280;1994;48.640;8.894;2023-09-07T08:24:17;96504.19;;;28.25;46.89
3960;BME280;1994;48.640;8.894;2023-09-07T08:26:43;96500.16;;;28.43;46.13
3960;BME280;1994;48.640;8.894;2023-09-07T08:29:09;96498.22;;;29.38;44.88
3960;BME280;1994;48.640;8.894;2023-09-07T08:31:37;96509.38;;;30.21;42.97
3960;BME280;1994;48.640;8.894;2023-09-07T08:34:08;96508.84;;;30.31;42.48
3960;BME280;1994;48.640;8.894;2023-09-07T08:36:37;96503.66;;;29.72;43.71
3960;BME280;1994;48.640;8.894;2023-09-07T08:39:04;96507.09;;;29.73;44.17
3960;BME280;1994;48.640;8.894;2023-09-07T08:41:43;96508.28;;;30.06;42.72
3960;BME280;1994;48.640;8.894;2023-09-07T08:44:16;96510.28;;;30.63;42.05
3960;BME280;1994;48.640;8.894;2023-09-07T08:46:44;96512.22;;;30.81;40.52
3960;BME280;1994;48.640;8.894;2023-09-07T08:49:13;96504.25;;;29.97;42.47
3960;BME280;1994;48.640;8.894;2023-09-07T08:51:39;96509.66;;;30.16;42.17
3960;BME280;1994;48.640;8.894;2023-09-07T08:54:07;96510.09;;;30.18;42.23
3960;BME280;1994;48.640;8.894;2023-09-07T08:56:33;96495.28;;;30.39;41.99
3960;BME280;1994;48.640;8.894;2023-09-07T08:58:59;96507.13;;;31.37;40.65
3960;BME280;1994;48.640;8.894;2023-09-07T09:01:25;96506.75;;;30.40;41.65
3960;BME280;1994;48.640;8.894;2023-09-07T09:03:51;96508.13;;;29.99;42.29
3960;BME280;1994;48.640;8.894;2023-09-07T09:06:20;96505.06;;;30.51;40.76
3960;BME280;1994;48.640;8.894;2023-09-07T09:08:48;96518.47;;;31.27;41.55
3960;BME280;1994;48.640;8.894;2023-09-07T09:11:21;96515.34;;;31.70;39.10
3960;BME280;1994;48.640;8.894;2023-09-07T09:13:49;96510.91;;;32.26;38.66
3960;BME280;1994;48.640;8.894;2023-09-07T09:16:15;96520.75;;;32.22;38.75
3960;BME280;1994;48.640;8.894;2023-09-07T09:19:00;96509.22;;;32.18;38.49
3960;BME280;1994;48.640;8.894;2023-09-07T09:21:27;96510.59;;;31.37;41.00
3960;BME280;1994;48.640;8.894;2023-09-07T09:23:56;96507.50;;;31.58;40.46
3960;BME280;1994;48.640;8.894;2023-09-07T09:26:22;96504.28;;;32.20;39.65
3960;BME280;1994;48.640;8.894;2023-09-07T09:28:49;96502.00;;;32.48;38.24
3960;BME280;1994;48.640;8.894;2023-09-07T09:31:17;96505.91;;;32.02;39.27
3960;BME280;1994;48.640;8.894;2023-09-07T09:33:48;96499.25;;;32.74;38.07
3960;BME280;1994;48.640;8.894;2023-09-07T09:36:16;96501.28;;;31.99;39.55
3960;BME280;1994;48.640;8.894;2023-09-07T09:38:48;96494.91;;;31.81;39.67
3960;BME280;1994;48.640;8.894;2023-09-07T09:41:17;96487.47;;;32.82;38.83
3960;BME280;1994;48.640;8.894;2023-09-07T09:43:43;96488.66;;;32.55;38.52
3960;BME280;1994;48.640;8.894;2023-09-07T09:46:12;96488.09;;;33.05;37.73
3960;BME280;1994;48.640;8.894;2023-09-07T09:48:40;96489.00;;;33.19;37.51
3960;BME280;1994;48.640;8.894;2023-09-07T09:51:07;96494.53;;;32.64;38.20
3960;BME280;1994;48.640;8.894;2023-09-07T09:53:34;96486.94;;;32.73;38.38
3960;BME280;1994;48.640;8.894;2023-09-07T09:56:00;96499.13;;;32.34;39.17
3960;BME280;1994;48.640;8.894;2023-09-07T09:58:26;96483.94;;;32.45;40.15
3960;BME280;1994;48.640;8.894;2023-09-07T10:00:56;96486.06;;;32.62;39.14
3960;BME280;1994;48.640;8.894;2023-09-07T10:03:52;96490.41;;;33.03;37.74
3960;BME280;1994;48.640;8.894;2023-09-07T10:06:23;96490.75;;;32.39;39.45
3960;BME280;1994;48.640;8.894;2023-09-07T10:09:07;96486.50;;;32.97;38.39
3960;BME280;1994;48.640;8.894;2023-09-07T10:11:38;96483.88;;;32.71;37.70
3960;BME280;1994;48.640;8.894;2023-09-07T10:14:06;96479.78;;;33.17;38.79
3960;BME280;1994;48.640;8.894;2023-09-07T10:16:53;96484.06;;;33.65;37.74
3960;BME280;1994;48.640;8.894;2023-09-07T10:19:23;96487.69;;;34.37;37.05
3960;BME280;1994;48.640;8.894;2023-09-07T10:21:50;96479.00;;;34.00;36.50
3960;BME280;1994;48.640;8.894;2023-09-07T10:24:34;96476.66;;;34.66;35.11
3960;BME280;1994;48.640;8.894;2023-09-07T10:27:09;96478.25;;;34.06;36.01
3960;BME280;1994;48.640;8.894;2023-09-07T10:29:51;96482.44;;;34.65;36.03
3960;BME280;1994;48.640;8.894;2023-09-07T10:32:20;96479.03;;;33.60;37.25
3960;BME280;1994;48.640;8.894;2023-09-07T10:34:46;96477.22;;;33.71;37.39
3960;BME280;1994;48.640;8.894;2023-09-07T10:37:13;96467.00;;;33.40;37.73
3960;BME280;1994;48.640;8.894;2023-09-07T10:39:44;96461.63;;;32.70;39.55
3960;BME280;1994;48.640;8.894;2023-09-07T10:42:24;96461.69;;;32.74;40.30
3960;BME280;1994;48.640;8.894;2023-09-07T10:44:50;96460.31;;;33.27;38.78
3960;BME280;1994;48.640;8.894;2023-09-07T10:47:16;96450.19;;;33.50;37.56
3960;BME280;1994;48.640;8.894;2023-09-07T10:49:42;96452.78;;;33.83;37.66
3960;BME280;1994;48.640;8.894;2023-09-07T10:52:08;96458.88;;;33.80;37.99
3960;BME280;1994;48.640;8.894;2023-09-07T10:54:34;96458.56;;;34.60;37.08
3960;BME280;1994;48.640;8.894;2023-09-07T10:57:09;96458.56;;;34.56;36.91
3960;BME280;1994;48.640;8.894;2023-09-07T10:59:35;96456.78;;;34.10;37.34
3960;BME280;1994;48.640;8.894;2023-09-07T11:02:07;96447.38;;;34.44;37.30
3960;BME280;1994;48.640;8.894;2023-09-07T11:04:33;96446.47;;;34.26;36.34
3960;BME280;1994;48.640;8.894;2023-09-07T11:06:59;96442.38;;;33.78;36.86
3960;BME280;1994;48.640;8.894;2023-09-07T11:09:25;96441.09;;;33.65;38.50
3960;BME280;1994;48.640;8.894;2023-09-07T11:11:52;96436.59;;;33.79;37.57
3960;BME280;1994;48.640;8.894;2023-09-07T11:14:21;96446.94;;;34.35;37.80
3960;BME280;1994;48.640;8.894;2023-09-07T11:16:48;96444.38;;;33.88;37.50
3960;BME280;1994;48.640;8.894;2023-09-07T11:19:14;96440.50;;;33.85;38.54
3960;BME280;1994;48.640;8.894;2023-09-07T11:21:41;96439.63;;;32.54;40.27
3960;BME280;1994;48.640;8.894;2023-09-07T11:24:08;96437.56;;;33.14;39.81
3960;BME280;1994;48.640;8.894;2023-09-07T11:26:44;96435.63;;;33.51;39.05
3960;BME280;1994;48.640;8.894;2023-09-07T11:29:17;96446.22;;;32.93;40.10
3960;BME280;1994;48.640;8.894;2023-09-07T11:31:52;96441.78;;;33.15;40.05
3960;BME280;1994;48.640;8.894;2023-09-07T11:34:21;96439.72;;;32.98;39.72
3960;BME280;1994;48.640;8.894;2023-09-07T11:36:49;96436.25;;;33.34;39.34
3960;BME280;1994;48.640;8.894;2023-09-07T11:39:18;96436.66;;;33.83;38.88
3960;BME280;1994;48.640;8.894;2023-09-07T11:41:45;96432.31;;;32.84;40.14
3960;BME280;1994;48.640;8.894;2023-09-07T11:44:11;96433.69;;;33.08;40.35
3960;BME280;1994;48.640;8.894;2023-09-07T11:46:37;96432.00;;;32.93;40.01
3960;BME280;1994;48.640;8.894;2023-09-07T11:49:03;96422.38;;;33.28;39.28
3960;BME280;1994;48.640;8.894;2023-09-07T11:51:32;96426.53;;;32.20;41.58
3960;BME280;1994;48.640;8.894;2023-09-07T11:54:04;96426.09;;;32.77;41.31
3960;BME280;1994;48.640;8.894;2023-09-07T11:56:30;96430.97;;;32.09;42.07
3960;BME280;1994;48.640;8.894;2023-09-07T11:58:56;96424.38;;;31.51;44.22
3960;BME280;1994;48.640;8.894;2023-09-07T12:01:22;96428.50;;;31.97;42.88
3960;BME280;1994;48.640;8.894;2023-09-07T12:03:48;96418.59;;;31.49;43.85
3960;BME280;1994;48.640;8.894;2023-09-07T12:06:14;96424.59;;;31.65;42.97
3960;BME280;1994;48.640;8.894;2023-09-07T12:08:42;96424.03;;;31.30;43.76
3960;BME280;1994;48.640;8.894;2023-09-07T12:11:23;96424.16;;;30.73;45.32
3960;BME280;1994;48.640;8.894;2023-09-07T12:13:48;96424.78;;;30.66;45.43
3960;BME280;1994;48.640;8.894;2023-09-07T12:16:14;96404.88;;;30.26;46.00
3960;BME280;1994;48.640;8.894;2023-09-07T12:18:40;96423.13;;;31.00;44.55
3960;BME280;1994;48.640;8.894;2023-09-07T12:21:06;96413.75;;;31.32;44.29
3960;BME280;1994;48.640;8.894;2023-09-07T12:23:32;96420.38;;;31.19;45.24
3960;BME280;1994;48.640;8.894;2023-09-07T12:25:58;96413.50;;;31.40;43.84
3960;BME280;1994;48.640;8.894;2023-09-07T12:28:24;96421.41;;;31.11;44.74
3960;BME280;1994;48.640;8.894;2023-09-07T12:30:49;96417.16;;;32.07;42.86
3960;BME280;1994;48.640;8.894;2023-09-07T12:33:15;96411.41;;;32.34;41.43
3960;BME280;1994;48.640;8.894;2023-09-07T12:35:41;96413.53;;;32.22;41.57
3960;BME280;1994;48.640;8.894;2023-09-07T12:38:07;96412.94;;;31.80;42.11
3960;BME280;1994;48.640;8.894;2023-09-07T12:40:34;96416.66;;;31.98;42.33
3960;BME280;1994;48.640;8.894;2023-09-07T12:43:00;96409.81;;;32.63;40.95
3960;BME280;1994;48.640;8.894;2023-09-07T12:45:29;96412.75;;;31.66;42.34
3960;BME280;1994;48.640;8.894;2023-09-07T12:47:58;96409.91;;;31.81;42.11
3960;BME280;1994;48.640;8.894;2023-09-07T12:50:27;96410.53;;;31.23;43.24
3960;BME280;1994;48.640;8.894;2023-09-07T12:52:53;96413.13;;;30.97;43.46
3960;BME280;1994;48.640;8.894;2023-09-07T12:55:20;96415.69;;;30.71;44.29
3960;BME280;1994;48.640;8.894;2023-09-07T12:57:46;96410.63;;;30.66;44.49
3960;BME280;1994;48.640;8.894;2023-09-07T13:00:14;96409.88;;;30.88;44.12
3960;BME280;1994;48.640;8.894;2023-09-07T13:02:41;96410.25;;;31.09;43.74
3960;BME280;1994;48.640;8.894;2023-09-07T13:05:07;96414.66;;;30.98;44.43
3960;BME280;1994;48.640;8.894;2023-09-07T13:07:34;96408.00;;;31.56;42.85
3960;BME280;1994;48.640;8.894;2023-09-07T13:10:01;96405.00;;;31.61;42.22
3960;BME280;1994;48.640;8.894;2023-09-07T13:12:33;96404.78;;;31.47;43.30
3960;BME280;1994;48.640;8.894;2023-09-07T13:14:59;96405.94;;;31.72;43.09
3960;BME280;1994;48.640;8.894;2023-09-07T13:17:27;96406.53;;;32.14;41.52
3960;BME280;1994;48.640;8.894;2023-09-07T13:19:53;96400.59;;;32.97;40.13
3960;BME280;1994;48.640;8.894;2023-09-07T13:22:19;96404.31;;;32.85;40.16
3960;BME280;1994;48.640;8.894;2023-09-07T13:24:45;96399.56;;;32.39;40.47